Time;durP1;ratioP1;P1;durP2;ratioP2;P2;SDS_P1;SDS_P2;PMS_P1;PMS_P2;Temp;Humidity;BMP_temperature;BMP_pressure;BME280_temperature;BME280_humidity;BME280_pressure;Samples;Min_cycle;Max_cycle;Signal;HPM_P1;HPM_P2
2023/04/23 00:01:01;;;;;;;;;;;;;;;16.94;28.21;100007.72;5087429;28;19920;-69
2023/04/23 00:03:27;;;;;;;;;;;;;;;16.89;27.88;100005.75;5090578;28;20300;-68
2023/04/23 00:05:56;;;;;;;;;;;;;;;16.86;27.81;100003.53;5089196;28;20256;-67
2023/04/23 00:08:22;;;;;;;;;;;;;;;16.82;27.86;99996.91;5091624;28;19912;-67
2023/04/23 00:10:47;;;;;;;;;;;;;;;16.87;27.79;99998.94;5091447;28;19920;-69
2023/04/23 00:13:13;;;;;;;;;;;;;;;16.88;27.99;99995.97;5086845;28;19969;-68
2023/04/23 00:15:38;;;;;;;;;;;;;;;16.83;27.74;99987.75;5090766;28;19912;-68
2023/04/23 00:18:03;;;;;;;;;;;;;;;16.89;27.90;99984.06;5088584;28;19989;-68
2023/04/23 00:20:29;;;;;;;;;;;;;;;16.85;27.94;99984.81;5089420;28;19916;-68
2023/04/23 00:22:54;;;;;;;;;;;;;;;16.86;28.18;99983.72;5090284;28;19973;-68
2023/04/23 00:25:19;;;;;;;;;;;;;;;16.88;27.66;99981.56;5088613;28;20388;-65
2023/04/23 00:27:46;;;;;;;;;;;;;;;16.83;27.94;99977.72;5092519;28;19915;-65
2023/04/23 00:30:12;;;;;;;;;;;;;;;16.90;27.77;99987.56;5092683;28;19924;-65
2023/04/23 00:32:37;;;;;;;;;;;;;;;16.89;28.79;99972.38;5092278;28;19971;-65
2023/04/23 00:35:03;;;;;;;;;;;;;;;16.90;28.86;99960.44;5093262;28;19916;-66
2023/04/23 00:37:28;;;;;;;;;;;;;;;16.92;28.88;99961.03;5094895;28;19955;-65
2023/04/23 00:39:53;;;;;;;;;;;;;;;16.92;28.96;99952.88;5095828;28;19923;-65
2023/04/23 00:42:19;;;;;;;;;;;;;;;16.88;29.02;99943.59;5095431;28;20363;-65
2023/04/23 00:44:45;;;;;;;;;;;;;;;16.93;29.01;99939.06;5094425;28;19912;-64
2023/04/23 00:47:11;;;;;;;;;;;;;;;16.91;29.72;99937.69;5095441;28;20015;-65
2023/04/23 00:49:38;;;;;;;;;;;;;;;16.91;30.08;99933.09;5096742;28;19916;-64
2023/04/23 00:52:03;;;;;;;;;;;;;;;16.87;29.91;99937.38;5094461;28;19923;-64
2023/04/23 00:54:30;;;;;;;;;;;;;;;16.91;30.51;99940.41;5095200;28;19964;-66
2023/04/23 00:56:58;;;;;;;;;;;;;;;16.92;30.56;99923.06;5095841;28;19916;-65
2023/04/23 00:59:27;;;;;;;;;;;;;;;16.90;30.35;99922.47;5095026;28;19916;-66
2023/04/23 01:01:52;;;;;;;;;;;;;;;16.86;30.62;99929.47;5095393;28;19912;-65
2023/04/23 01:04:19;;;;;;;;;;;;;;;16.83;30.86;99920.78;5094735;28;19916;-65
2023/04/23 01:06:48;;;;;;;;;;;;;;;16.87;31.30;99912.97;5094938;28;19954;-64
2023/04/23 01:09:14;;;;;;;;;;;;;;;16.86;31.33;99921.34;5094324;28;19972;-65
2023/04/23 01:11:41;;;;;;;;;;;;;;;16.86;31.45;99915.91;5095199;28;20361;-65
2023/04/23 01:14:07;;;;;;;;;;;;;;;16.78;31.57;99912.53;5094503;28;19926;-65
2023/04/23 01:16:33;;;;;;;;;;;;;;;16.70;31.85;99907.53;5094724;28;20725;-67
2023/04/23 01:18:58;;;;;;;;;;;;;;;16.71;31.85;99903.72;5093711;28;19927;-66
2023/04/23 01:21:24;;;;;;;;;;;;;;;16.74;32.03;99891.59;5095088;28;19920;-65
2023/04/23 01:23:49;;;;;;;;;;;;;;;16.75;31.58;99890.50;5094196;28;20287;-64
2023/04/23 01:26:15;;;;;;;;;;;;;;;16.81;32.04;99892.25;5094459;28;19916;-65
2023/04/23 01:28:42;;;;;;;;;;;;;;;16.81;31.78;99890.34;5094832;28;19916;-65
2023/04/23 01:31:07;;;;;;;;;;;;;;;16.77;32.22;99888.34;5094827;28;19920;-64
2023/04/23 01:33:33;;;;;;;;;;;;;;;16.71;32.39;99878.50;5094269;28;19947;-64
2023/04/23 01:35:58;;;;;;;;;;;;;;;16.69;32.40;99880.66;5095156;28;20345;-65
2023/04/23 01:38:25;;;;;;;;;;;;;;;16.63;33.13;99877.88;5095324;28;19919;-65
2023/04/23 01:40:50;;;;;;;;;;;;;;;16.60;33.07;99883.81;5094887;28;19912;-65
2023/04/23 01:43:16;;;;;;;;;;;;;;;16.65;33.18;99877.63;5094224;28;19920;-65
2023/04/23 01:45:41;;;;;;;;;;;;;;;16.68;33.67;99876.28;5092472;28;19934;-66
2023/04/23 01:48:06;;;;;;;;;;;;;;;16.61;33.42;99873.78;5093148;28;19919;-65
2023/04/23 01:50:32;;;;;;;;;;;;;;;16.61;33.81;99874.59;5092804;28;20693;-65
2023/04/23 01:52:57;;;;;;;;;;;;;;;16.61;33.96;99865.63;5094089;28;19924;-65
2023/04/23 01:55:23;;;;;;;;;;;;;;;16.56;33.79;99860.13;5093534;28;19912;-65
2023/04/23 01:57:49;;;;;;;;;;;;;;;16.63;33.51;99866.22;5094434;28;19912;-64
2023/04/23 02:00:16;;;;;;;;;;;;;;;16.60;33.83;99869.41;5094106;28;19969;-64
2023/04/23 02:02:42;;;;;;;;;;;;;;;16.62;33.99;99867.25;5094479;28;19912;-65
2023/04/23 02:05:15;;;;;;;;;;;;;;;16.62;34.31;99873.53;5094275;28;19916;-65
2023/04/23 02:07:41;;;;;;;;;;;;;;;16.59;34.24;99860.47;5093234;28;19912;-65
2023/04/23 02:10:07;;;;;;;;;;;;;;;16.67;34.56;99869.25;5094089;28;20368;-65
2023/04/23 02:12:32;;;;;;;;;;;;;;;16.64;34.33;99860.53;5093813;28;19920;-65
2023/04/23 02:14:58;;;;;;;;;;;;;;;16.65;34.26;99864.06;5092534;28;19926;-65
2023/04/23 02:17:24;;;;;;;;;;;;;;;16.57;35.20;99856.38;5093733;28;19916;-66
2023/04/23 02:19:49;;;;;;;;;;;;;;;16.55;35.40;99847.66;5092823;28;20313;-65
2023/04/23 02:22:15;;;;;;;;;;;;;;;16.52;35.30;99845.44;5093877;28;19985;-65
2023/04/23 02:24:40;;;;;;;;;;;;;;;16.51;35.42;99841.91;5094336;28;19911;-66
2023/04/23 02:27:06;;;;;;;;;;;;;;;16.51;35.69;99838.38;5093976;28;20471;-64
2023/04/23 02:29:32;;;;;;;;;;;;;;;16.44;34.70;99833.94;5093991;28;19919;-65
2023/04/23 02:32:03;;;;;;;;;;;;;;;16.47;34.80;99835.31;5094063;28;20044;-65
2023/04/23 02:34:28;;;;;;;;;;;;;;;16.41;35.03;99839.84;5092794;28;20361;-64
2023/04/23 02:36:53;;;;;;;;;;;;;;;16.32;35.83;99841.31;5091996;28;20257;-66
2023/04/23 02:39:19;;;;;;;;;;;;;;;16.33;35.72;99832.16;5093147;28;19938;-66
2023/04/23 02:41:44;;;;;;;;;;;;;;;16.31;35.55;99830.75;5093065;28;19916;-65
2023/04/23 02:44:10;;;;;;;;;;;;;;;16.33;35.54;99824.03;5093435;28;19912;-65
2023/04/23 02:46:36;;;;;;;;;;;;;;;16.30;35.96;99815.56;5093297;28;20257;-66
2023/04/23 02:49:02;;;;;;;;;;;;;;;16.35;36.26;99821.06;5092100;28;19991;-66
2023/04/23 02:51:28;;;;;;;;;;;;;;;16.31;37.07;99811.78;5074671;28;19924;-65
2023/04/23 02:53:53;;;;;;;;;;;;;;;16.34;36.35;99811.28;5092072;28;19939;-64
2023/04/23 02:56:18;;;;;;;;;;;;;;;16.30;37.03;99813.66;5092426;28;19922;-64
2023/04/23 02:58:44;;;;;;;;;;;;;;;16.23;37.93;99802.16;5092439;28;20372;-65
2023/04/23 03:01:09;;;;;;;;;;;;;;;16.19;36.91;99796.41;5093098;28;19912;-66
2023/04/23 03:03:34;;;;;;;;;;;;;;;16.17;37.83;99790.44;5092952;28;20288;-65
2023/04/23 03:06:00;;;;;;;;;;;;;;;16.21;38.53;99778.06;5092710;28;19912;-65
2023/04/23 03:08:26;;;;;;;;;;;;;;;16.20;38.20;99768.28;5092812;28;20364;-65
2023/04/23 03:10:51;;;;;;;;;;;;;;;16.20;37.95;99757.44;5093428;28;20007;-64
2023/04/23 03:13:17;;;;;;;;;;;;;;;16.23;37.99;99754.25;5091976;28;20817;-65
2023/04/23 03:15:42;;;;;;;;;;;;;;;16.23;37.69;99750.69;5091994;28;19954;-65
2023/04/23 03:18:07;;;;;;;;;;;;;;;16.25;37.88;99741.25;5092512;28;19920;-65
2023/04/23 03:20:33;;;;;;;;;;;;;;;16.17;38.10;99738.16;5091002;28;20372;-66
2023/04/23 03:22:58;;;;;;;;;;;;;;;16.20;38.12;99721.41;5092053;28;20436;-65
2023/04/23 03:25:24;;;;;;;;;;;;;;;16.16;38.39;99721.09;5092479;28;19968;-64
2023/04/23 03:27:50;;;;;;;;;;;;;;;16.16;38.72;99710.25;5090950;28;20427;-64
2023/04/23 03:30:16;;;;;;;;;;;;;;;16.19;38.52;99698.91;5092361;28;19924;-64
2023/04/23 03:32:41;;;;;;;;;;;;;;;16.11;38.74;99685.78;5092204;28;20361;-65
2023/04/23 03:35:08;;;;;;;;;;;;;;;16.08;38.61;99674.63;5092023;28;20268;-66
2023/04/23 03:37:33;;;;;;;;;;;;;;;16.03;39.13;99664.56;5091377;28;19941;-65
2023/04/23 03:40:00;;;;;;;;;;;;;;;15.93;39.29;99673.34;5091111;28;19912;-66
2023/04/23 03:42:25;;;;;;;;;;;;;;;15.86;39.41;99664.56;5093041;28;19912;-65
2023/04/23 03:44:51;;;;;;;;;;;;;;;15.85;38.80;99669.16;5095548;28;19919;-64
2023/04/23 03:47:16;;;;;;;;;;;;;;;15.83;39.23;99675.91;5095536;28;19923;-65
2023/04/23 03:49:41;;;;;;;;;;;;;;;15.78;39.40;99681.22;5092423;28;19919;-65
2023/04/23 03:52:07;;;;;;;;;;;;;;;15.78;39.51;99678.53;5091904;28;19912;-65
2023/04/23 03:54:32;;;;;;;;;;;;;;;15.70;39.89;99677.03;5092019;28;19916;-65
2023/04/23 03:56:58;;;;;;;;;;;;;;;15.65;39.99;99675.03;5091754;28;19920;-65
2023/04/23 03:59:23;;;;;;;;;;;;;;;15.66;40.12;99667.78;5091164;28;19922;-66
2023/04/23 04:01:48;;;;;;;;;;;;;;;15.64;40.14;99664.50;5091914;28;19978;-65
2023/04/23 04:04:14;;;;;;;;;;;;;;;15.58;40.59;99666.31;5092316;28;19918;-65
2023/04/23 04:06:39;;;;;;;;;;;;;;;15.52;41.34;99666.44;5091283;28;19995;-65
2023/04/23 04:09:06;;;;;;;;;;;;;;;15.48;41.04;99663.41;5091699;28;19970;-65
2023/04/23 04:11:32;;;;;;;;;;;;;;;15.55;41.07;99655.97;5091235;28;19912;-66
2023/04/23 04:13:57;;;;;;;;;;;;;;;15.56;41.73;99651.34;5090969;28;19966;-65
2023/04/23 04:16:22;;;;;;;;;;;;;;;15.52;41.99;99656.44;5091714;28;19916;-65
2023/04/23 04:18:48;;;;;;;;;;;;;;;15.51;42.32;99640.44;5091399;28;19920;-65
2023/04/23 04:21:16;;;;;;;;;;;;;;;15.48;42.41;99639.06;5090952;28;19912;-65
2023/04/23 04:23:42;;;;;;;;;;;;;;;15.43;42.20;99631.69;5091255;28;19934;-64
2023/04/23 04:26:07;;;;;;;;;;;;;;;15.48;42.17;99625.53;5091131;28;19919;-65
2023/04/23 04:28:35;;;;;;;;;;;;;;;15.40;42.76;99626.75;5091191;28;19916;-65
2023/04/23 04:31:00;;;;;;;;;;;;;;;15.44;42.83;99618.97;5090773;28;19916;-65
2023/04/23 04:33:26;;;;;;;;;;;;;;;15.52;43.23;99617.75;5091314;28;19923;-65
2023/04/23 04:35:51;;;;;;;;;;;;;;;15.54;42.59;99618.31;5091195;28;19912;-66
2023/04/23 04:38:17;;;;;;;;;;;;;;;15.45;43.48;99618.75;5091449;28;19923;-65
2023/04/23 04:40:42;;;;;;;;;;;;;;;15.43;42.93;99606.50;5091477;28;19916;-64
2023/04/23 04:43:08;;;;;;;;;;;;;;;15.42;43.62;99594.88;5091546;28;19920;-65
2023/04/23 04:45:34;;;;;;;;;;;;;;;15.38;43.38;99585.63;5073059;28;19912;-65
2023/04/23 04:48:05;;;;;;;;;;;;;;;15.50;43.32;99569.28;5090956;28;19923;-66
2023/04/23 04:50:30;;;;;;;;;;;;;;;15.48;43.59;99555.19;5091442;28;19912;-65
2023/04/23 04:52:56;;;;;;;;;;;;;;;15.45;43.22;99555.66;5090899;28;19920;-65
2023/04/23 04:55:21;;;;;;;;;;;;;;;15.36;42.85;99540.91;5091128;28;19958;-65
2023/04/23 04:57:46;;;;;;;;;;;;;;;15.39;43.16;99543.94;5091277;28;19923;-65
2023/04/23 05:00:38;;;;;;;;;;;;;;;15.35;42.75;99544.72;5091388;28;20280;-65
2023/04/23 05:03:04;;;;;;;;;;;;;;;15.37;42.83;99529.03;5087457;28;20309;-65
2023/04/23 05:05:31;;;;;;;;;;;;;;;15.40;42.79;99536.66;5091318;28;20007;-64
2023/04/23 05:08:01;;;;;;;;;;;;;;;15.35;42.90;99547.41;5091303;28;19967;-65
2023/04/23 05:10:26;;;;;;;;;;;;;;;15.40;42.78;99550.19;5090334;28;19962;-64
2023/04/23 05:12:52;;;;;;;;;;;;;;;15.44;42.80;99543.22;5091158;28;20007;-65
2023/04/23 05:15:17;;;;;;;;;;;;;;;15.41;42.24;99555.34;5090962;28;19965;-65
2023/04/23 05:17:42;;;;;;;;;;;;;;;15.40;41.99;99559.13;5089537;28;20268;-65
2023/04/23 05:20:11;;;;;;;;;;;;;;;15.38;42.17;99576.66;5091409;28;19920;-65
2023/04/23 05:22:37;;;;;;;;;;;;;;;15.48;41.90;99577.63;5095498;28;19935;-65
2023/04/23 05:25:03;;;;;;;;;;;;;;;15.54;41.56;99577.72;5095224;28;20356;-66
2023/04/23 05:27:28;;;;;;;;;;;;;;;15.41;42.14;99582.41;5093854;28;19971;-65
2023/04/23 05:29:53;;;;;;;;;;;;;;;15.40;41.69;99577.25;5094932;28;19912;-64
2023/04/23 05:32:19;;;;;;;;;;;;;;;15.49;42.45;99581.19;5094394;28;19912;-64
2023/04/23 05:34:44;;;;;;;;;;;;;;;15.48;43.80;99585.75;5094599;28;19912;-65
2023/04/23 05:37:09;;;;;;;;;;;;;;;15.42;43.69;99594.06;5094589;28;20296;-65
2023/04/23 05:39:35;;;;;;;;;;;;;;;15.40;44.05;99596.19;5093186;28;20352;-64
2023/04/23 05:42:01;;;;;;;;;;;;;;;15.39;44.45;99597.25;5094409;28;19912;-64
2023/04/23 05:44:27;;;;;;;;;;;;;;;15.39;44.45;99587.22;5094597;28;19912;-65
2023/04/23 05:46:52;;;;;;;;;;;;;;;15.39;44.91;99584.53;5094342;28;19912;-64
2023/04/23 05:49:18;;;;;;;;;;;;;;;15.42;44.94;99577.81;5094267;28;20018;-64
2023/04/23 05:51:43;;;;;;;;;;;;;;;15.39;45.44;99579.13;5093640;28;19917;-65
2023/04/23 05:54:08;;;;;;;;;;;;;;;15.34;44.57;99589.03;5093983;28;19927;-64
2023/04/23 05:56:33;;;;;;;;;;;;;;;15.38;44.20;99599.13;5093969;28;19912;-65
2023/04/23 05:58:59;;;;;;;;;;;;;;;15.35;44.54;99601.50;5094058;28;20019;-66
2023/04/23 06:01:24;;;;;;;;;;;;;;;15.34;44.41;99595.28;5092639;28;19912;-64
2023/04/23 06:03:49;;;;;;;;;;;;;;;15.30;43.97;99588.72;5093930;28;19919;-65
2023/04/23 06:06:15;;;;;;;;;;;;;;;15.22;44.38;99587.25;5094330;28;20225;-64
2023/04/23 06:08:40;;;;;;;;;;;;;;;15.24;44.50;99578.88;5094574;28;19912;-65
2023/04/23 06:11:06;;;;;;;;;;;;;;;15.19;45.44;99573.38;5093896;28;19920;-64
2023/04/23 06:13:32;;;;;;;;;;;;;;;15.25;45.32;99565.13;5093566;28;20368;-65
2023/04/23 06:15:57;;;;;;;;;;;;;;;15.36;45.18;99543.63;5093716;28;19934;-64
2023/04/23 06:18:22;;;;;;;;;;;;;;;15.33;45.29;99533.31;5092322;28;20855;-65
2023/04/23 06:20:50;;;;;;;;;;;;;;;15.44;44.59;99529.69;5092903;28;20013;-66
2023/04/23 06:23:15;;;;;;;;;;;;;;;15.42;45.41;99515.59;5093323;28;19916;-65
2023/04/23 06:25:41;;;;;;;;;;;;;;;15.32;45.31;99513.53;5094251;28;19920;-64
2023/04/23 06:28:06;;;;;;;;;;;;;;;15.35;44.89;99514.94;5094454;28;19919;-64
2023/04/23 06:30:32;;;;;;;;;;;;;;;15.37;44.60;99510.91;5094906;28;19912;-65
2023/04/23 06:32:57;;;;;;;;;;;;;;;15.36;44.86;99508.44;5094339;28;20889;-64
2023/04/23 06:35:23;;;;;;;;;;;;;;;15.48;44.60;99499.16;5094582;28;19938;-65
2023/04/23 06:37:48;;;;;;;;;;;;;;;15.57;44.30;99501.47;5093585;28;19916;-65
2023/04/23 06:40:13;;;;;;;;;;;;;;;15.51;44.59;99487.03;5093577;28;19919;-65
2023/04/23 06:42:39;;;;;;;;;;;;;;;15.51;45.04;99487.03;5093502;28;19911;-65
2023/04/23 06:45:05;;;;;;;;;;;;;;;15.41;44.63;99490.41;5093528;28;20214;-66
2023/04/23 06:47:30;;;;;;;;;;;;;;;15.40;44.30;99496.91;5093336;28;19912;-64
2023/04/23 06:49:56;;;;;;;;;;;;;;;15.40;44.41;99496.91;5093305;28;20417;-65
2023/04/23 06:52:22;;;;;;;;;;;;;;;15.44;44.21;99486.41;5093508;28;19912;-64
2023/04/23 06:54:47;;;;;;;;;;;;;;;15.43;44.25;99491.00;5093428;28;19977;-66
2023/04/23 06:57:12;;;;;;;;;;;;;;;15.42;44.22;99488.53;5094607;28;19916;-64
2023/04/23 06:59:37;;;;;;;;;;;;;;;15.51;44.37;99487.03;5096905;28;19916;-65
2023/04/23 07:02:03;;;;;;;;;;;;;;;15.59;43.81;99486.59;5093836;28;19923;-65
2023/04/23 07:04:28;;;;;;;;;;;;;;;15.55;44.14;99485.47;5094601;28;19945;-65
2023/04/23 07:06:54;;;;;;;;;;;;;;;15.48;44.02;99484.81;5095203;28;20010;-65
2023/04/23 07:09:19;;;;;;;;;;;;;;;15.52;44.59;99488.66;5094227;28;19912;-64
2023/04/23 07:11:44;;;;;;;;;;;;;;;15.58;44.56;99489.53;5093191;28;20522;-64
2023/04/23 07:14:09;;;;;;;;;;;;;;;15.56;44.50;99497.91;5093027;28;20330;-64
2023/04/23 07:16:35;;;;;;;;;;;;;;;15.50;44.68;99496.22;5092332;28;20284;-65
2023/04/23 07:19:01;;;;;;;;;;;;;;;15.43;45.12;99501.81;5091685;28;19923;-65
2023/04/23 07:21:27;;;;;;;;;;;;;;;15.53;45.47;99503.03;5091379;28;19912;-65
2023/04/23 07:23:53;;;;;;;;;;;;;;;15.50;45.05;99504.34;5093508;28;19916;-66
2023/04/23 07:26:20;;;;;;;;;;;;;;;15.53;45.54;99503.03;5091078;28;19931;-65
2023/04/23 07:28:47;;;;;;;;;;;;;;;15.60;45.07;99493.66;5092447;28;19963;-65
2023/04/23 07:31:12;;;;;;;;;;;;;;;15.57;45.44;99493.34;5092779;28;20010;-64
2023/04/23 07:33:38;;;;;;;;;;;;;;;15.63;45.16;99490.44;5092596;28;20011;-64
2023/04/23 07:36:03;;;;;;;;;;;;;;;15.74;44.85;99490.59;5091930;28;19950;-65
2023/04/23 07:38:28;;;;;;;;;;;;;;;15.74;45.24;99496.03;5092465;28;20482;-64
2023/04/23 07:40:54;;;;;;;;;;;;;;;15.73;45.00;99500.59;5092402;28;19965;-66
2023/04/23 07:43:20;;;;;;;;;;;;;;;15.66;44.98;99492.66;5091955;28;19935;-64
2023/04/23 07:45:45;;;;;;;;;;;;;;;15.71;45.26;99489.16;5091984;28;19916;-65
2023/04/23 07:48:10;;;;;;;;;;;;;;;15.74;45.29;99490.59;5091937;28;19912;-66
2023/04/23 07:50:36;;;;;;;;;;;;;;;15.68;45.56;99485.09;5091797;28;19913;-64
2023/04/23 07:53:01;;;;;;;;;;;;;;;15.77;44.60;99485.50;5091850;28;19916;-66
2023/04/23 07:55:27;;;;;;;;;;;;;;;15.94;44.41;99476.50;5092110;28;19918;-65
2023/04/23 07:57:52;;;;;;;;;;;;;;;15.98;44.31;99474.91;5090887;28;19935;-65
2023/04/23 08:00:18;;;;;;;;;;;;;;;16.03;44.68;99474.97;5091882;28;20018;-66
2023/04/23 08:02:43;;;;;;;;;;;;;;;15.99;44.47;99480.09;5091208;28;19927;-64
2023/04/23 08:05:08;;;;;;;;;;;;;;;15.95;44.62;99465.38;5091609;28;20308;-65
2023/04/23 08:07:34;;;;;;;;;;;;;;;15.93;44.44;99466.72;5091609;28;19934;-64
2023/04/23 08:10:03;;;;;;;;;;;;;;;15.93;44.39;99464.81;5091290;28;19912;-65
2023/04/23 08:12:29;;;;;;;;;;;;;;;15.92;43.93;99467.81;5089478;28;20469;-66
2023/04/23 08:14:55;;;;;;;;;;;;;;;15.88;44.01;99459.38;5091529;28;19916;-66
2023/04/23 08:17:20;;;;;;;;;;;;;;;15.85;43.98;99452.56;5091338;28;20409;-66
2023/04/23 08:19:45;;;;;;;;;;;;;;;15.90;44.14;99451.81;5090995;28;20380;-65
2023/04/23 08:22:12;;;;;;;;;;;;;;;15.89;44.81;99444.75;5091510;28;19927;-66
2023/04/23 08:24:37;;;;;;;;;;;;;;;15.96;44.47;99450.78;5091668;28;20018;-65
2023/04/23 08:27:02;;;;;;;;;;;;;;;16.00;44.73;99454.63;5091329;28;20860;-65
2023/04/23 08:29:28;;;;;;;;;;;;;;;16.04;44.23;99458.44;5091684;28;19920;-66
2023/04/23 08:31:53;;;;;;;;;;;;;;;16.08;44.66;99456.06;5091726;28;19999;-66
2023/04/23 08:34:19;;;;;;;;;;;;;;;16.05;44.82;99454.69;5090720;28;20279;-66
2023/04/23 08:36:45;;;;;;;;;;;;;;;16.03;44.20;99453.31;5091743;28;19928;-65
2023/04/23 08:39:10;;;;;;;;;;;;;;;16.14;43.83;99443.38;5091646;28;20352;-65
2023/04/23 08:41:43;;;;;;;;;;;;;;;16.13;43.65;99444.47;5091446;28;19912;-66
2023/04/23 08:44:27;;;;;;;;;;;;;;;16.20;43.60;99450.50;5091909;28;19997;-65
2023/04/23 08:46:53;;;;;;;;;;;;;;;16.26;43.52;99449.47;5091641;28;19912;-66
2023/04/23 08:49:19;;;;;;;;;;;;;;;16.32;43.23;99453.84;5090867;28;19977;-65
2023/04/23 08:51:54;;;;;;;;;;;;;;;16.18;42.79;99453.47;5091350;28;19927;-66
2023/04/23 08:54:26;;;;;;;;;;;;;;;16.15;43.92;99453.16;5090874;28;20276;-65
2023/04/23 08:56:54;;;;;;;;;;;;;;;16.19;43.55;99455.09;5095655;28;19923;-66
2023/04/23 08:59:21;;;;;;;;;;;;;;;16.26;43.00;99454.88;5097699;28;19912;-66
2023/04/23 09:01:47;;;;;;;;;;;;;;;16.28;43.02;99450.03;5096600;28;19923;-65
2023/04/23 09:04:19;;;;;;;;;;;;;;;16.30;42.45;99444.34;5095526;28;19916;-64
2023/04/23 09:06:44;;;;;;;;;;;;;;;16.41;41.94;99441.47;5094000;28;20047;-65
2023/04/23 09:09:11;;;;;;;;;;;;;;;16.54;42.14;99442.94;5095404;28;19952;-66
2023/04/23 09:11:37;;;;;;;;;;;;;;;16.42;42.32;99445.84;5094199;28;19923;-67
2023/04/23 09:14:03;;;;;;;;;;;;;;;16.37;42.39;99448.50;5094591;28;20369;-66
2023/04/23 09:16:28;;;;;;;;;;;;;;;16.39;43.01;99448.25;5094738;28;19916;-65
2023/04/23 09:18:53;;;;;;;;;;;;;;;16.29;42.37;99448.13;5093492;28;19998;-65
2023/04/23 09:21:19;;;;;;;;;;;;;;;16.35;42.91;99447.94;5094679;28;19925;-65
2023/04/23 09:23:44;;;;;;;;;;;;;;;16.32;42.48;99448.44;5095059;28;19912;-65
2023/04/23 09:26:17;;;;;;;;;;;;;;;16.31;42.35;99452.22;5094284;28;19912;-65
2023/04/23 09:28:43;;;;;;;;;;;;;;;16.32;42.53;99451.16;5094542;28;19924;-66
2023/04/23 09:31:09;;;;;;;;;;;;;;;16.36;43.01;99448.75;5094593;28;19920;-65
2023/04/23 09:33:34;;;;;;;;;;;;;;;16.36;43.40;99455.00;5094067;28;19947;-65
2023/04/23 09:36:12;;;;;;;;;;;;;;;16.36;43.12;99457.72;5094494;28;20061;-66
2023/04/23 09:38:39;;;;;;;;;;;;;;;16.33;42.92;99455.50;5094498;28;20228;-66
2023/04/23 09:41:26;;;;;;;;;;;;;;;16.35;43.27;99464.19;5094147;28;19916;-65
2023/04/23 09:43:55;;;;;;;;;;;;;;;16.38;42.89;99449.31;5094613;28;19912;-65
2023/04/23 09:46:36;;;;;;;;;;;;;;;16.48;42.79;99452.13;5093928;28;19912;-66
2023/04/23 09:49:02;;;;;;;;;;;;;;;16.54;42.64;99448.38;5094029;28;19919;-65
2023/04/23 09:51:28;;;;;;;;;;;;;;;16.68;42.49;99446.06;5094084;28;20007;-66
2023/04/23 09:53:54;;;;;;;;;;;;;;;16.79;42.25;99452.34;5092368;28;20019;-65
2023/04/23 09:56:20;;;;;;;;;;;;;;;16.87;42.63;99451.09;5094525;28;19951;-66
2023/04/23 09:58:45;;;;;;;;;;;;;;;16.94;42.62;99449.81;5095110;28;19919;-66
2023/04/23 10:01:11;;;;;;;;;;;;;;;16.99;42.81;99446.28;5095237;28;19916;-65
2023/04/23 10:03:41;;;;;;;;;;;;;;;16.97;42.21;99443.03;5094056;28;19918;-66
2023/04/23 10:06:06;;;;;;;;;;;;;;;16.97;41.95;99443.84;5094409;28;19991;-66
2023/04/23 10:08:32;;;;;;;;;;;;;;;17.04;42.00;99443.63;5092778;28;20015;-66
2023/04/23 10:10:57;;;;;;;;;;;;;;;17.01;42.03;99436.84;5093929;28;19961;-66
2023/04/23 10:13:22;;;;;;;;;;;;;;;17.07;41.82;99436.84;5093889;28;19946;-66
2023/04/23 10:15:47;;;;;;;;;;;;;;;17.13;42.03;99441.25;5093910;28;20486;-66
2023/04/23 10:18:13;;;;;;;;;;;;;;;17.20;41.69;99441.84;5093526;28;19916;-66
2023/04/23 10:20:40;;;;;;;;;;;;;;;17.21;41.55;99438.84;5091261;28;19920;-66
2023/04/23 10:23:07;;;;;;;;;;;;;;;17.27;41.83;99441.56;5092450;28;19920;-66
2023/04/23 10:25:33;;;;;;;;;;;;;;;17.22;41.97;99436.97;5093642;28;19920;-66
2023/04/23 10:28:00;;;;;;;;;;;;;;;17.20;41.53;99439.94;5092714;28;19920;-65
2023/04/23 10:30:25;;;;;;;;;;;;;;;17.08;41.80;99433.06;5093558;28;19919;-66
2023/04/23 10:32:52;;;;;;;;;;;;;;;17.14;41.85;99434.72;5093462;28;19916;-65
2023/04/23 10:35:17;;;;;;;;;;;;;;;17.24;41.97;99425.84;5092345;28;19921;-66
2023/04/23 10:37:45;;;;;;;;;;;;;;;17.21;41.69;99427.97;5091836;28;19980;-66
2023/04/23 10:40:15;;;;;;;;;;;;;;;17.31;42.11;99435.38;5093225;28;19912;-65
2023/04/23 10:42:42;;;;;;;;;;;;;;;17.30;42.00;99435.63;5093882;28;19912;-65
2023/04/23 10:45:17;;;;;;;;;;;;;;;17.32;41.41;99433.47;5094888;28;19912;-65
2023/04/23 10:47:43;;;;;;;;;;;;;;;17.48;42.01;99437.91;5095331;28;19988;-65
2023/04/23 10:50:19;;;;;;;;;;;;;;;17.40;41.40;99430.25;5094829;28;19989;-65
2023/04/23 10:52:48;;;;;;;;;;;;;;;17.39;40.95;99437.59;5095451;28;19912;-65
2023/04/23 10:55:17;;;;;;;;;;;;;;;17.48;41.64;99435.19;5093277;28;20383;-66
2023/04/23 10:57:59;;;;;;;;;;;;;;;17.50;41.65;99438.44;5094197;28;19912;-66
2023/04/23 11:00:44;;;;;;;;;;;;;;;17.45;41.33;99434.91;5092370;28;19964;-65
2023/04/23 11:03:42;;;;;;;;;;;;;;;17.37;41.40;99430.78;5092686;28;20405;-67
2023/04/23 11:06:08;;;;;;;;;;;;;;;17.23;41.23;99433.16;5069189;28;19969;-65
2023/04/23 11:08:36;;;;;;;;;;;;;;;17.21;41.07;99441.53;5093181;28;19968;-66
2023/04/23 11:11:05;;;;;;;;;;;;;;;17.22;41.69;99429.63;5090981;28;20048;-65
2023/04/23 11:13:30;;;;;;;;;;;;;;;17.20;41.29;99430.97;5092424;28;20011;-65
2023/04/23 11:16:14;;;;;;;;;;;;;;;17.16;41.87;99438.81;5092544;28;20000;-65
2023/04/23 11:18:56;;;;;;;;;;;;;;;17.09;41.26;99435.53;5089643;28;19920;-65
2023/04/23 11:21:21;;;;;;;;;;;;;;;17.08;41.86;99433.88;5090208;28;19912;-65
2023/04/23 11:23:46;;;;;;;;;;;;;;;17.17;42.21;99428.78;5092713;28;20015;-66
2023/04/23 11:26:16;;;;;;;;;;;;;;;17.21;41.16;99430.69;5092734;28;20237;-66
2023/04/23 11:28:42;;;;;;;;;;;;;;;17.19;41.68;99429.34;5092656;28;19947;-64
2023/04/23 11:31:08;;;;;;;;;;;;;;;17.17;41.92;99424.16;5092898;28;20320;-65
2023/04/23 11:33:33;;;;;;;;;;;;;;;17.16;42.17;99424.41;5092516;28;20388;-66
2023/04/23 11:36:01;;;;;;;;;;;;;;;17.16;41.70;99425.25;5091855;28;19916;-66
2023/04/23 11:38:30;;;;;;;;;;;;;;;17.17;41.57;99431.50;5092423;28;19919;-66
2023/04/23 11:40:56;;;;;;;;;;;;;;;17.09;41.48;99432.81;5091986;28;19972;-66
2023/04/23 11:43:22;;;;;;;;;;;;;;;17.09;41.40;99434.72;5090938;28;20288;-65
2023/04/23 11:45:48;;;;;;;;;;;;;;;17.00;41.38;99432.47;5092035;28;19916;-66
2023/04/23 11:48:13;;;;;;;;;;;;;;;17.04;41.75;99443.63;5092273;28;19920;-66
2023/04/23 11:50:40;;;;;;;;;;;;;;;17.12;41.72;99437.69;5092196;28;20453;-66
2023/04/23 11:53:09;;;;;;;;;;;;;;;17.24;41.76;99434.00;5091443;28;20341;-66
2023/04/23 11:55:34;;;;;;;;;;;;;;;16.83;41.69;99385.72;5092812;28;20249;-66
2023/04/23 11:58:00;;;;;;;;;;;;;;;17.32;42.38;99436.19;5092217;28;19919;-66
2023/04/23 12:00:25;;;;;;;;;;;;;;;17.36;42.02;99437.28;5092064;28;19915;-67
2023/04/23 12:02:59;;;;;;;;;;;;;;;17.37;41.14;99442.47;5092058;28;19935;-68
2023/04/23 12:05:35;;;;;;;;;;;;;;;17.36;41.79;99445.44;5092162;28;19916;-66
2023/04/23 12:08:17;;;;;;;;;;;;;;;17.35;41.64;99435.66;5092056;28;19957;-66
2023/04/23 12:10:46;;;;;;;;;;;;;;;17.35;41.18;99441.91;5091385;28;19912;-67
2023/04/23 12:13:15;;;;;;;;;;;;;;;17.52;41.08;99438.19;5090221;28;19970;-65
2023/04/23 12:15:46;;;;;;;;;;;;;;;17.56;40.15;99433.84;5091186;28;20364;-67
2023/04/23 12:18:11;;;;;;;;;;;;;;;17.45;40.65;99445.75;5091303;28;19947;-66
2023/04/23 12:20:36;;;;;;;;;;;;;;;17.35;40.86;99446.53;5090910;28;20243;-65
2023/04/23 12:23:05;;;;;;;;;;;;;;;17.34;41.59;99453.03;5091665;28;19912;-64
2023/04/23 12:25:31;;;;;;;;;;;;;;;17.26;40.34;99440.78;5090911;28;19912;-66
2023/04/23 12:28:03;;;;;;;;;;;;;;;17.27;40.49;99447.00;5091937;28;19912;-66
2023/04/23 12:30:32;;;;;;;;;;;;;;;17.33;40.73;99446.78;5094572;28;20567;-66
2023/04/23 12:33:01;;;;;;;;;;;;;;;17.24;41.17;99451.06;5096953;28;19920;-67
2023/04/23 12:35:40;;;;;;;;;;;;;;;17.28;40.08;99454.88;5096828;28;19918;-66
2023/04/23 12:38:06;;;;;;;;;;;;;;;17.15;40.54;99461.59;5095304;28;20353;-66
2023/04/23 12:40:31;;;;;;;;;;;;;;;17.11;39.95;99459.69;5095467;28;19952;-66
2023/04/23 12:42:57;;;;;;;;;;;;;;;17.11;40.79;99462.41;5094611;28;19916;-66